Time;durP1;ratioP1;P1;durP2;ratioP2;P2;SDS_P1;SDS_P2;PMS_P1;PMS_P2;Temp;Humidity;BMP_temperature;BMP_pressure;BME280_temperature;BME280_humidity;BME280_pressure;Samples;Min_cycle;Max_cycle;Signal;HPM_P1;HPM_P2
2022/12/11 00:02:25;;;;;;;9.55;7.22;;;-1.30;1.00;;;-1.44;85.91;100612.28;5015902;28;20214;-67
2022/12/11 00:04:55;;;;;;;21.75;11.07;;;-1.20;1.00;;;-1.24;86.15;100607.91;5019446;28;20195;-67
2022/12/11 00:07:24;;;;;;;16.88;9.93;;;-1.10;1.00;;;-1.13;84.52;100602.50;5035758;28;20205;-66
2022/12/11 00:09:53;;;;;;;18.33;10.35;;;-1.00;1.00;;;-1.28;85.24;100601.19;5022925;28;20217;-67
2022/12/11 00:12:22;;;;;;;22.45;9.32;;;-1.10;99.90;;;-1.33;84.83;100599.78;5022902;28;20201;-66
2022/12/11 00:14:51;;;;;;;14.43;7.00;;;-1.10;99.90;;;-1.46;85.41;100599.16;5016007;28;20729;-66
2022/12/11 00:17:20;;;;;;;18.42;9.32;;;-1.20;99.90;;;-1.53;85.82;100599.81;5039900;28;20651;-64
2022/12/11 00:19:49;;;;;;;12.60;8.70;;;-1.20;99.90;;;-1.61;86.03;100605.78;5055187;28;20204;-64
2022/12/11 00:22:19;;;;;;;12.80;7.97;;;-1.30;12.90;;;-1.54;86.46;100606.91;5055579;28;20569;-65
2022/12/11 00:29:37;;;;;;;12.32;8.02;;;-1.30;1.00;;;-1.77;85.74;100600.94;5054644;28;20184;-66
2022/12/11 00:32:07;;;;;;;17.75;9.65;;;-1.40;1.00;;;-1.65;86.05;100604.38;5055088;28;20751;-65
2022/12/11 00:34:36;;;;;;;16.90;8.02;;;-1.40;99.90;;;-1.59;86.26;100603.81;5054988;28;20264;-66
2022/12/11 00:37:05;;;;;;;14.85;9.07;;;-1.40;1.00;;;-1.40;86.32;100600.41;5054975;28;20239;-65
2022/12/11 00:39:38;;;;;;;11.45;8.10;;;-1.30;99.90;;;-1.31;84.61;100597.81;5055093;28;20227;-65
2022/12/11 00:42:08;;;;;;;11.50;7.93;;;-1.20;99.90;;;-1.54;84.99;100598.97;5054811;28;20201;-65
2022/12/11 00:44:37;;;;;;;18.00;9.82;;;-1.30;99.90;;;-1.63;85.29;100613.03;5054945;28;20554;-67
2022/12/11 00:47:06;;;;;;;14.50;7.90;;;-1.30;99.90;;;-1.40;85.59;100593.31;5054738;28;20243;-67
2022/12/11 00:49:35;;;;;;;27.75;10.45;;;-1.20;99.90;;;-1.23;86.29;100598.97;5054975;28;20193;-67
2022/12/11 00:52:04;;;;;;;15.93;9.80;;;-1.20;99.90;;;-1.33;85.26;100599.78;5054857;28;20185;-66
2022/12/11 00:59:31;;;;;;;11.55;7.55;;;-1.00;99.90;;;-1.17;83.85;100598.44;5054732;28;20726;-66
2022/12/11 01:01:59;;;;;;;14.48;9.38;;;-1.00;99.90;;;-1.31;84.47;100592.50;5054505;28;20223;-67
2022/12/11 01:04:28;;;;;;;19.00;10.50;;;-1.00;99.90;;;-1.29;84.61;100600.34;5054336;28;20201;-66
2022/12/11 01:06:57;;;;;;;15.80;7.72;;;-1.00;99.90;;;-1.42;85.03;100597.06;5054736;28;20262;-67
2022/12/11 01:12:13;;;;;;;22.15;9.38;;;-1.10;99.90;;;-1.50;84.42;100603.03;5034758;28;20182;-67
2022/12/11 01:14:43;;;;;;;10.57;8.02;;;-1.20;99.90;;;-1.48;84.27;100597.59;5042937;28;20199;-67
2022/12/11 01:17:12;;;;;;;19.98;11.30;;;-1.30;99.90;;;-1.53;84.47;100597.16;5053905;28;20274;-66
2022/12/11 01:19:41;;;;;;;14.48;9.75;;;-1.30;99.90;;;-1.68;85.48;100609.91;5054025;28;20216;-66
2022/12/11 01:22:10;;;;;;;14.98;8.38;;;-1.40;99.90;;;-1.46;85.14;100606.28;5053642;28;20219;-66
2022/12/11 01:24:39;;;;;;;28.52;8.90;;;-1.30;99.90;;;-1.34;85.94;100608.69;5069376;28;20223;-66
2022/12/11 01:27:08;;;;;;;10.85;7.75;;;-1.20;99.90;;;-1.25;85.63;100603.56;5053828;28;20220;-67
2022/12/11 01:29:37;;;;;;;13.77;9.20;;;-1.10;99.90;;;-1.47;85.39;100608.09;5053970;28;20196;-66
2022/12/11 01:32:07;;;;;;;19.75;11.38;;;-1.20;99.90;;;-1.43;84.52;100614.81;5053813;28;20211;-67
2022/12/11 01:34:36;;;;;;;13.07;8.18;;;-1.20;99.90;;;-1.40;85.43;100611.88;5054048;28;20591;-67
2022/12/11 01:37:05;;;;;;;13.30;9.02;;;-1.20;99.90;;;-1.24;84.51;100614.06;5053493;28;20255;-67
2022/12/11 01:39:34;;;;;;;11.77;8.93;;;-1.10;99.90;;;-1.55;85.36;100610.53;5053735;28;20208;-67
2022/12/11 01:42:03;;;;;;;16.30;10.90;;;-1.20;99.90;;;-1.58;86.14;100618.78;5046454;28;20221;-67
2022/12/11 01:45:24;;;;;;;14.63;7.10;;;-1.30;99.90;;;-1.61;86.18;100620.84;5053626;28;20192;-67
2022/12/11 01:48:04;;;;;;;16.75;9.82;;;-1.40;99.90;;;-1.68;86.99;100615.22;5049885;28;20234;-66
2022/12/11 01:50:39;;;;;;;15.80;9.02;;;-1.40;99.90;;;-1.77;87.38;100611.53;5037075;28;20193;-68
2022/12/11 01:53:15;;;;;;;21.83;10.90;;;-1.50;99.90;;;-1.86;87.89;100603.53;5053435;28;20596;-67
2022/12/11 01:55:46;;;;;;;22.55;9.75;;;-1.60;99.90;;;-1.80;88.19;100611.81;5035601;28;20215;-64
2022/12/11 01:58:20;;;;;;;17.95;10.55;;;-1.60;99.90;;;-1.49;88.09;100609.19;5053530;28;20653;-66
2022/12/11 02:00:49;;;;;;;29.20;10.38;;;-1.40;99.90;;;-1.60;87.60;100614.59;5045706;28;20228;-66
2022/12/11 02:03:19;;;;;;;25.20;12.50;;;-1.40;99.90;;;-1.60;87.87;100610.13;5053110;28;20196;-66
2022/12/11 02:05:48;;;;;;;17.40;9.70;;;-1.40;99.90;;;-1.58;87.52;100616.13;5053280;28;20606;-67
2022/12/11 02:08:18;;;;;;;14.48;8.75;;;-1.30;99.90;;;-1.46;87.87;100603.63;5053335;28;20579;-67
2022/12/11 02:11:01;;;;;;;21.60;10.82;;;-1.30;99.90;;;-1.65;87.84;100607.03;5053482;28;20196;-67
2022/12/11 02:13:40;;;;;;;22.02;11.43;;;-1.40;99.90;;;-1.61;87.64;100603.13;5053221;28;20223;-67
2022/12/11 02:16:21;;;;;;;20.95;10.35;;;-1.40;99.90;;;-1.68;88.21;100604.59;5053059;28;20208;-66
2022/12/11 02:19:01;;;;;;;19.02;11.10;;;-1.40;99.90;;;-1.83;88.85;100611.22;5052954;28;20594;-67
2022/12/11 02:21:38;;;;;;;15.77;9.52;;;-1.50;99.90;;;-1.81;89.50;100615.44;5048974;28;20335;-67
2022/12/11 02:24:33;;;;;;;24.08;11.68;;;-1.50;99.90;;;-1.42;88.52;100616.50;5050664;28;20180;-65
2022/12/11 02:27:20;;;;;;;17.50;10.30;;;-1.40;99.90;;;-1.47;87.59;100618.72;5053219;28;20240;-67
2022/12/11 02:30:01;;;;;;;20.25;11.50;;;-1.30;99.90;;;-1.25;87.68;100614.19;5053092;28;20216;-67
2022/12/11 02:32:39;;;;;;;19.65;9.90;;;-1.20;99.90;;;-1.22;86.95;100617.44;5052679;28;20180;-67
2022/12/11 02:35:15;;;;;;;13.85;8.73;;;-1.10;99.90;;;-1.14;86.71;100616.75;5052209;28;20223;-67
2022/12/11 02:37:48;;;;;;;15.70;9.63;;;-1.00;99.90;;;-1.05;86.69;100613.28;5052463;28;20216;-68
2022/12/11 02:40:24;;;;;;;18.10;10.00;;;-0.90;99.90;;;-1.13;85.86;100607.81;5052887;28;20211;-67
2022/12/11 02:42:57;;;;;;;16.70;9.40;;;-0.90;99.90;;;-1.17;86.11;100595.78;5053104;28;20222;-67
2022/12/11 02:45:30;;;;;;;22.45;10.55;;;-1.00;99.90;;;-1.25;86.79;100606.22;5046991;28;20672;-68
2022/12/11 02:48:03;;;;;;;16.48;9.52;;;-1.00;99.90;;;-1.27;87.64;100609.03;5047522;28;20201;-67
2022/12/11 02:50:36;;;;;;;28.08;10.68;;;-1.10;99.90;;;-1.27;87.73;100610.84;5053694;28;20288;-67
2022/12/11 02:53:08;;;;;;;19.33;9.88;;;-1.10;99.90;;;-1.42;87.48;100611.19;5053705;28;20242;-66
2022/12/11 02:55:39;;;;;;;19.20;9.85;;;-1.10;99.90;;;-1.44;87.85;100607.81;5054258;28;20200;-66
2022/12/11 02:58:16;;;;;;;24.13;10.40;;;-1.20;99.90;;;-1.51;88.09;100596.06;5053580;28;20193;-66
2022/12/11 03:00:47;;;;;;;15.73;10.30;;;-1.20;99.90;;;-1.42;88.02;100595.25;5041114;28;20244;-66
2022/12/11 03:03:16;;;;;;;19.83;11.23;;;-1.20;99.90;;;-1.41;87.57;100598.75;5052567;28;20192;-66
2022/12/11 03:05:45;;;;;;;18.75;11.15;;;-1.20;99.90;;;-1.50;88.69;100596.91;5052426;28;20197;-65
2022/12/11 03:08:17;;;;;;;16.85;10.93;;;-1.20;99.90;;;-1.49;88.36;100599.41;5052858;28;20193;-66
2022/12/11 03:10:46;;;;;;;17.55;10.45;;;-1.30;99.90;;;-1.52;88.33;100599.69;5052731;28;20673;-66
2022/12/11 03:13:20;;;;;;;20.20;10.80;;;-1.30;99.90;;;-1.69;89.45;100602.94;5052557;28;20235;-66
2022/12/11 03:16:07;;;;;;;19.85;10.25;;;-1.40;99.90;;;-1.54;88.70;100601.63;5052695;28;20203;-66
2022/12/11 03:18:49;;;;;;;20.92;9.45;;;-1.30;99.90;;;-1.57;88.53;100596.59;5258821;22;20271;-70
2022/12/11 03:21:27;;;;;;;24.20;12.02;;;-1.30;99.90;;;-1.65;89.46;100609.69;5071793;28;20208;-70
2022/12/11 03:24:04;;;;;;;16.25;11.05;;;-1.40;99.90;;;-1.49;89.59;100604.72;5072891;28;20211;-70
2022/12/11 03:26:41;;;;;;;17.67;10.88;;;-1.30;99.90;;;-1.46;90.00;100593.84;5072948;28;20686;-69
2022/12/11 03:29:20;;;;;;;23.92;11.20;;;-1.30;99.90;;;-1.52;90.07;100602.34;5053176;28;20172;-70
2022/12/11 03:31:59;;;;;;;18.98;8.75;;;-1.30;99.90;;;-1.53;90.26;100611.25;5053529;28;20653;-69
2022/12/11 03:34:37;;;;;;;15.52;10.40;;;-1.30;99.90;;;-1.67;90.32;100611.59;5047989;28;20181;-68
2022/12/11 03:37:08;;;;;;;14.27;8.63;;;-1.40;99.90;;;-1.61;90.98;100608.44;5049847;28;20296;-70
2022/12/11 03:39:43;;;;;;;11.40;7.45;;;-1.40;99.90;;;-1.65;90.77;100614.97;5035121;28;20634;-70
2022/12/11 03:42:16;;;;;;;20.65;9.43;;;-1.40;99.90;;;-1.48;90.69;100611.72;5048325;28;20550;-69
2022/12/11 03:44:49;;;;;;;17.33;9.77;;;-1.30;99.90;;;-1.47;90.01;100616.06;5054411;28;20192;-70
2022/12/11 03:47:26;;;;;;;18.13;10.75;;;-1.30;99.90;;;-1.63;91.22;100612.19;5059132;28;20221;-70
2022/12/11 03:49:58;;;;;;;24.30;10.95;;;-1.30;99.90;;;-1.44;91.57;100607.81;5061166;28;20711;-70
2022/12/11 03:52:29;;;;;;;18.45;12.38;;;-1.30;99.90;;;-1.53;91.05;100603.31;5050914;28;20200;-70
2022/12/11 03:55:04;;;;;;;30.88;12.77;;;-1.30;99.90;;;-1.43;90.84;100598.88;5037379;28;20625;-69
2022/12/11 03:57:37;;;;;;;17.50;10.80;;;-1.20;99.90;;;-1.29;90.68;100597.69;5060944;28;20212;-70
2022/12/11 04:00:09;;;;;;;18.13;10.45;;;-1.20;99.90;;;-1.41;90.43;100599.59;5060075;28;20211;-70
2022/12/11 04:03:11;;;;;;;25.27;12.50;;;-1.20;99.90;;;-1.61;91.02;100600.47;5051916;28;20730;-70
2022/12/11 04:05:41;;;;;;;17.50;9.43;;;-1.30;99.90;;;-1.52;91.39;100599.69;5039876;28;20251;-69
2022/12/11 04:08:11;;;;;;;17.80;10.88;;;-1.30;99.90;;;-1.52;91.21;100583.75;5056635;28;20219;-69
2022/12/11 04:10:41;;;;;;;29.73;11.75;;;-1.30;99.90;;;-1.58;91.81;100589.59;5058185;28;20264;-69
2022/12/11 04:13:11;;;;;;;26.15;9.60;;;-1.30;99.90;;;-1.67;92.20;100589.53;5049172;28;20185;-70
2022/12/11 04:15:39;;;;;;;17.67;9.68;;;-1.40;99.90;;;-1.84;92.36;100588.34;5059580;28;20189;-69
2022/12/11 04:26:27;;;;;;;15.55;10.80;;;-1.60;99.90;;;-1.80;93.31;100589.75;5037937;28;20227;-70
2022/12/11 04:28:55;;;;;;;11.00;8.90;;;-1.60;99.90;;;-1.86;93.56;100579.66;5057022;28;20220;-69
2022/12/11 04:31:24;;;;;;;16.40;10.98;;;-1.60;99.90;;;-1.66;93.01;100592.06;5051282;28;20192;-71
2022/12/11 04:33:54;;;;;;;20.67;12.27;;;-1.50;99.90;;;-1.79;93.01;100591.41;5058208;28;20557;-70
2022/12/11 04:36:23;;;;;;;23.25;11.25;;;-1.60;99.90;;;-1.70;92.87;100582.69;5057794;28;20193;-69
2022/12/11 04:38:52;;;;;;;19.67;10.82;;;-1.50;99.90;;;-1.81;93.08;100578.31;5057655;28;20205;-68
2022/12/11 04:41:25;;;;;;;12.20;7.88;;;-1.60;99.90;;;-2.03;93.27;100573.13;5059384;28;20209;-70
2022/12/11 04:43:54;;;;;;;18.52;10.30;;;-1.70;99.90;;;-1.96;94.14;100576.09;5058696;28;20184;-70
2022/12/11 04:46:25;;;;;;;17.63;8.07;;;-1.70;99.90;;;-1.80;94.10;100579.16;5046166;28;20243;-69
2022/12/11 04:48:55;;;;;;;14.65;9.40;;;-1.70;99.90;;;-1.66;94.00;100589.41;5058929;28;20623;-71
2022/12/11 04:51:26;;;;;;;20.52;11.40;;;-1.50;99.90;;;-1.70;92.51;100589.81;5066453;28;20295;-70
2022/12/11 04:53:55;;;;;;;13.02;7.63;;;-1.50;99.90;;;-1.68;92.63;100580.72;5064784;28;20284;-70
2022/12/11 04:56:24;;;;;;;17.63;10.98;;;-1.50;99.90;;;-1.81;93.26;100588.06;5059856;28;20671;-70
2022/12/11 04:58:52;;;;;;;19.50;9.95;;;-1.60;99.90;;;-1.80;93.19;100584.44;5062328;28;20219;-70
2022/12/11 05:01:23;;;;;;;17.27;9.23;;;-1.60;99.90;;;-1.85;93.05;100592.81;5063105;28;20232;-69
2022/12/11 05:04:03;;;;;;;22.38;10.10;;;-1.60;99.90;;;-2.00;93.40;100587.94;5061370;28;20208;-69
2022/12/11 05:06:33;;;;;;;18.13;9.13;;;-1.70;99.90;;;-2.04;94.30;100581.22;5063795;28;20212;-70
2022/12/11 05:09:02;;;;;;;23.55;9.02;;;-1.80;99.90;;;-1.98;94.42;100575.38;5058843;28;20246;-70
2022/12/11 05:11:31;;;;;;;34.20;13.23;;;-1.70;99.90;;;-2.05;94.53;100579.53;5065386;28;20189;-68
2022/12/11 05:13:59;;;;;;;20.70;11.55;;;-1.80;99.90;;;-1.96;93.81;100589.38;5063311;28;20200;-70
2022/12/11 05:16:28;;;;;;;17.90;13.98;;;-1.70;99.90;;;-1.86;93.45;100584.97;5066151;28;20257;-70
2022/12/11 05:18:57;;;;;;;25.08;11.25;;;-1.70;99.90;;;-1.92;93.71;100578.38;5063065;28;20250;-70
2022/12/11 05:21:27;;;;;;;16.55;12.75;;;-1.70;99.90;;;-1.85;93.63;100576.03;5067329;28;20216;-70
2022/12/11 05:24:02;;;;;;;25.45;13.32;;;-1.60;99.90;;;-1.86;93.63;100574.34;5045117;28;20193;-69
2022/12/11 05:26:31;;;;;;;19.20;11.45;;;-1.60;99.90;;;-1.87;93.75;100570.00;5041027;28;20587;-69
2022/12/11 05:29:00;;;;;;;24.60;13.02;;;-1.70;99.90;;;-1.81;93.81;100561.53;5045858;28;20192;-69
2022/12/11 05:31:29;;;;;;;19.83;12.90;;;-1.70;99.90;;;-1.91;93.44;100574.75;5060028;28;20189;-70
2022/12/11 05:33:58;;;;;;;23.67;11.07;;;-1.70;99.90;;;-1.97;93.86;100571.75;5062348;28;20193;-70
2022/12/11 05:36:30;;;;;;;23.02;10.65;;;-1.70;99.90;;;-2.01;94.55;100570.34;5065171;28;20344;-70
2022/12/11 05:39:01;;;;;;;19.95;8.13;;;-1.80;99.90;;;-1.96;93.67;100566.34;5065548;28;20184;-69
2022/12/11 05:41:32;;;;;;;16.17;8.25;;;-1.80;99.90;;;-1.94;94.17;100568.88;5060382;28;20681;-71
2022/12/11 05:44:01;;;;;;;21.08;9.90;;;-1.80;99.90;;;-1.95;94.17;100570.69;5067219;28;20231;-71
2022/12/11 05:46:31;;;;;;;20.83;10.80;;;-1.70;99.90;;;-1.89;94.02;100577.28;5083027;28;20205;-71
2022/12/11 05:49:01;;;;;;;23.42;9.27;;;-1.70;99.90;;;-2.00;94.15;100578.19;5055628;28;20189;-70
2022/12/11 05:51:33;;;;;;;21.50;12.43;;;-1.80;99.90;;;-1.87;92.96;100577.97;5070400;28;20192;-70
2022/12/11 05:54:06;;;;;;;21.33;11.00;;;-1.70;99.90;;;-1.91;94.26;100581.84;5051374;28;20216;-70
2022/12/11 05:56:36;;;;;;;18.63;10.75;;;-1.70;99.90;;;-1.80;93.45;100579.16;5054240;28;20189;-69
2022/12/11 05:59:06;;;;;;;22.05;9.15;;;-1.70;99.90;;;-1.81;92.47;100572.16;5053947;28;20208;-70
2022/12/11 06:01:38;;;;;;;23.52;10.35;;;-1.60;99.90;;;-1.79;92.06;100570.19;5046091;28;20208;-70
2022/12/11 06:04:11;;;;;;;19.45;8.70;;;-1.60;99.90;;;-1.94;92.11;100567.06;5035634;28;20224;-70
2022/12/11 06:06:42;;;;;;;15.18;10.73;;;-1.70;99.90;;;-1.93;92.41;100567.88;5043345;28;20189;-70
2022/12/11 06:09:15;;;;;;;14.02;9.05;;;-1.70;99.90;;;-1.94;91.60;100555.59;5050531;28;20575;-70
2022/12/11 06:11:44;;;;;;;17.95;9.80;;;-1.70;99.90;;;-2.00;92.00;100556.13;5044195;28;20193;-70
2022/12/11 06:14:13;;;;;;;20.67;11.18;;;-1.80;99.90;;;-2.01;91.95;100559.75;5054283;28;20192;-69
2022/12/11 06:16:41;;;;;;;17.80;10.10;;;-1.80;99.90;;;-2.01;91.58;100552.63;5053606;28;20775;-69
2022/12/11 06:19:15;;;;;;;17.17;7.97;;;-1.80;99.90;;;-1.98;91.22;100560.31;5044282;28;20703;-71
2022/12/11 06:21:47;;;;;;;13.55;9.50;;;-1.80;99.90;;;-2.04;89.81;100565.31;5040916;28;20208;-69
2022/12/11 06:24:16;;;;;;;10.75;8.00;;;-1.80;99.90;;;-2.03;89.21;100562.50;5044967;28;20193;-70
2022/12/11 06:26:45;;;;;;;16.80;8.68;;;-1.80;99.90;;;-2.04;89.53;100560.00;5047717;28;20192;-70
2022/12/11 06:29:13;;;;;;;16.55;8.00;;;-1.80;99.90;;;-2.09;88.83;100560.41;5037683;28;20188;-69
2022/12/11 06:31:43;;;;;;;14.60;8.57;;;-1.90;99.90;;;-2.08;87.93;100563.91;5046978;28;20192;-70
2022/12/11 06:34:13;;;;;;;13.57;8.18;;;-1.90;99.90;;;-2.11;86.69;100559.69;5053567;28;20185;-68
2022/12/11 06:36:42;;;;;;;9.38;6.45;;;-1.90;99.90;;;-2.09;86.63;100567.50;5053470;28;20189;-70
2022/12/11 06:39:12;;;;;;;10.95;7.85;;;-1.90;99.90;;;-1.98;86.46;100564.78;5053574;28;20188;-71
2022/12/11 06:41:41;;;;;;;10.80;6.70;;;-1.80;2.40;;;-2.03;85.02;100565.16;5053403;28;20212;-69
2022/12/11 06:44:09;;;;;;;14.10;6.40;;;-1.90;1.00;;;-2.10;83.73;100558.72;5053407;28;20196;-68
2022/12/11 06:46:38;;;;;;;20.00;9.43;;;-1.90;99.90;;;-2.15;83.21;100565.38;5049460;28;20189;-70
2022/12/11 06:49:07;;;;;;;11.60;7.88;;;-2.00;99.90;;;-2.25;83.29;100563.50;5044231;28;20201;-69
2022/12/11 06:51:35;;;;;;;12.38;8.35;;;-2.00;99.90;;;-2.30;81.69;100575.44;5047443;28;20264;-69
2022/12/11 06:54:04;;;;;;;9.88;7.13;;;-2.10;15.60;;;-2.22;81.90;100576.47;5053268;28;20540;-70
2022/12/11 06:56:35;;;;;;;14.23;7.47;;;-2.10;7.30;;;-2.26;81.34;100575.06;5053200;28;20188;-69
2022/12/11 06:59:04;;;;;;;11.05;6.95;;;-2.10;1.00;;;-2.27;82.33;100576.03;5053279;28;20242;-70
2022/12/11 07:01:35;;;;;;;10.93;8.15;;;-2.10;1.00;;;-2.27;82.08;100580.47;5046909;28;20189;-70
2022/12/11 07:04:03;;;;;;;13.93;8.00;;;-2.10;1.00;;;-2.30;81.78;100586.03;5046300;28;20216;-68
2022/12/11 07:06:32;;;;;;;8.05;5.28;;;-2.10;1.00;;;-2.43;82.25;100580.94;5033648;28;20189;-70
2022/12/11 07:09:04;;;;;;;11.75;5.72;;;-2.20;1.00;;;-2.39;82.34;100574.41;5033806;28;20189;-69
2022/12/11 07:11:34;;;;;;;11.35;6.88;;;-2.20;1.00;;;-2.33;82.29;100581.84;5039387;28;20213;-68
2022/12/11 07:14:02;;;;;;;23.45;8.30;;;-2.20;16.20;;;-2.27;82.92;100576.03;5051623;28;20207;-68
2022/12/11 07:16:31;;;;;;;10.70;7.70;;;-2.10;14.80;;;-2.33;81.59;100571.25;5053173;28;20268;-70
2022/12/11 07:19:00;;;;;;;11.07;7.45;;;-2.10;1.00;;;-2.39;81.28;100576.22;5053670;28;20200;-69
2022/12/11 07:21:29;;;;;;;14.32;6.88;;;-2.20;1.00;;;-2.42;81.72;100565.88;5057882;28;20260;-70
2022/12/11 07:23:58;;;;;;;9.68;6.78;;;-2.20;1.00;;;-2.45;81.51;100566.97;5050801;28;20213;-70
2022/12/11 07:26:27;;;;;;;16.95;8.02;;;-2.20;1.00;;;-2.47;81.61;100578.66;5059696;28;20193;-68
2022/12/11 07:28:59;;;;;;;8.23;6.05;;;-2.20;1.00;;;-2.48;82.03;100582.28;5060621;28;20220;-70
2022/12/11 07:31:30;;;;;;;7.10;5.95;;;-2.20;1.00;;;-2.49;82.18;100589.38;5061262;28;20279;-70
2022/12/11 07:34:02;;;;;;;17.45;6.95;;;-2.30;1.00;;;-2.48;82.77;100588.41;5063234;28;20197;-69
2022/12/11 07:36:32;;;;;;;9.23;6.03;;;-2.30;1.00;;;-2.41;82.24;100581.63;5061434;28;20642;-70
2022/12/11 07:39:01;;;;;;;11.93;7.75;;;-2.20;1.00;;;-2.25;81.69;100579.41;5062634;28;20284;-70
2022/12/11 07:41:30;;;;;;;13.55;8.35;;;-2.10;1.00;;;-2.36;81.24;100576.78;5063113;28;20181;-69
2022/12/11 07:44:01;;;;;;;15.32;10.98;;;-2.10;1.00;;;-2.46;81.85;100578.50;5043854;28;20296;-69
2022/12/11 07:46:33;;;;;;;10.30;6.43;;;-2.20;1.00;;;-2.55;82.73;100581.94;5058560;28;20205;-70
2022/12/11 07:49:02;;;;;;;7.60;6.32;;;-2.30;1.00;;;-2.50;81.58;100595.63;5064703;28;20518;-69
2022/12/11 07:51:34;;;;;;;16.13;8.23;;;-2.30;1.00;;;-2.56;82.81;100593.47;5053849;28;20636;-69
2022/12/11 07:54:06;;;;;;;18.02;9.35;;;-2.30;1.00;;;-2.50;82.56;100585.03;5059534;28;20272;-70
2022/12/11 07:56:35;;;;;;;19.77;12.35;;;-2.30;10.60;;;-2.49;82.64;100592.03;5062062;28;20183;-69
2022/12/11 07:59:07;;;;;;;8.68;6.32;;;-2.30;4.20;;;-2.52;82.32;100592.28;5053786;28;20193;-69
2022/12/11 08:01:37;;;;;;;8.18;6.63;;;-2.30;19.00;;;-2.48;83.03;100590.22;5064393;28;20587;-69
2022/12/11 08:04:08;;;;;;;12.57;6.20;;;-2.30;34.10;;;-2.45;82.38;100596.09;5064773;28;20211;-69
2022/12/11 08:06:41;;;;;;;16.20;9.73;;;-2.30;27.10;;;-2.44;82.46;100595.13;5060176;28;20284;-71
2022/12/11 08:09:11;;;;;;;11.43;5.72;;;-2.20;77.80;;;-2.36;82.19;100592.69;5050553;28;20564;-70
2022/12/11 08:11:50;;;;;;;8.10;5.68;;;-2.10;7.50;;;-2.40;82.06;100593.06;5047858;28;20185;-69
2022/12/11 08:14:20;;;;;;;17.90;12.23;;;-2.20;1.00;;;-2.48;82.57;100592.88;5054910;28;20196;-69
2022/12/11 08:16:49;;;;;;;16.58;8.13;;;-2.20;1.00;;;-2.46;82.41;100590.91;5063226;28;20189;-69
2022/12/11 08:19:18;;;;;;;13.32;7.80;;;-2.20;1.00;;;-2.35;81.90;100599.69;5062418;28;20223;-70
2022/12/11 08:21:47;;;;;;;17.70;10.82;;;-2.20;1.00;;;-2.18;82.08;100595.63;5059506;28;20568;-69
2022/12/11 08:24:19;;;;;;;11.38;6.90;;;-2.10;1.00;;;-2.15;81.51;100599.84;5061744;28;20216;-70
2022/12/11 08:26:49;;;;;;;17.75;11.35;;;-2.00;1.00;;;-2.18;81.45;100600.94;5050390;28;20193;-70
2022/12/11 08:29:19;;;;;;;17.10;9.18;;;-2.00;1.00;;;-2.22;81.15;100596.84;5058218;28;20197;-69
2022/12/11 08:31:47;;;;;;;11.27;7.50;;;-2.00;1.00;;;-2.16;81.63;100603.44;5056284;28;20707;-70
2022/12/11 08:34:16;;;;;;;7.13;5.80;;;-2.00;1.00;;;-2.29;81.11;100603.63;5057000;28;20195;-70
2022/12/11 08:36:45;;;;;;;10.15;7.32;;;-2.00;1.00;;;-2.28;81.70;100598.22;5057012;28;20199;-69
2022/12/11 08:39:13;;;;;;;21.42;7.63;;;-2.00;1.00;;;-2.20;81.47;100603.72;5057437;28;20193;-70
2022/12/11 08:41:42;;;;;;;10.82;6.65;;;-2.00;1.00;;;-2.09;80.98;100605.47;5054935;28;20684;-70
2022/12/11 08:44:13;;;;;;;15.43;6.55;;;-1.90;1.00;;;-2.17;81.58;100601.75;5056457;28;20210;-70
2022/12/11 08:46:46;;;;;;;14.32;7.40;;;-2.00;1.00;;;-2.02;81.28;100601.31;5056561;28;20707;-69
2022/12/11 08:49:16;;;;;;;9.07;6.50;;;-1.90;1.00;;;-1.99;80.88;100602.88;5056390;28;20189;-69
2022/12/11 08:51:45;;;;;;;10.65;6.50;;;-1.90;1.00;;;-1.96;81.05;100599.97;5056359;28;20199;-70
2022/12/11 08:54:13;;;;;;;16.45;8.55;;;-1.80;1.00;;;-1.87;80.84;100600.03;5055816;28;20189;-70
2022/12/11 08:56:42;;;;;;;15.90;7.95;;;-1.80;1.00;;;-1.96;80.73;100605.28;5043560;28;20255;-70
2022/12/11 08:59:11;;;;;;;24.65;7.20;;;-1.80;1.00;;;-1.94;80.02;100593.59;5048035;28;20672;-70
2022/12/11 09:01:40;;;;;;;17.83;8.73;;;-1.80;1.00;;;-1.99;80.76;100600.25;5048928;28;20208;-70
2022/12/11 09:04:10;;;;;;;11.15;7.55;;;-1.80;1.00;;;-1.92;81.33;100590.78;5055832;28;20251;-69
2022/12/11 09:06:39;;;;;;;14.52;6.13;;;-1.70;1.00;;;-1.89;81.32;100595.84;5055331;28;20657;-69
2022/12/11 09:09:08;;;;;;;15.23;9.07;;;-1.70;1.00;;;-2.00;81.12;100593.25;5055791;28;20197;-69
2022/12/11 09:11:38;;;;;;;10.43;6.43;;;-1.80;1.00;;;-2.06;80.86;100601.72;5055084;28;20196;-69
2022/12/11 09:14:07;;;;;;;17.63;10.32;;;-1.80;1.00;;;-2.03;80.79;100606.78;5047638;28;20624;-69
2022/12/11 09:16:40;;;;;;;14.82;7.93;;;-1.80;1.00;;;-2.09;81.56;100604.63;5054798;28;20185;-68
2022/12/11 09:19:15;;;;;;;12.35;6.63;;;-1.80;1.00;;;-2.14;81.66;100607.66;5296524;22;20251;-65
2022/12/11 09:21:44;;;;;;;15.20;7.15;;;-1.90;1.00;;;-2.08;81.86;100603.66;5074279;28;20184;-66
2022/12/11 09:24:14;;;;;;;22.02;9.15;;;-1.90;1.00;;;-2.06;81.88;100604.34;5074362;28;20703;-67
2022/12/11 09:26:43;;;;;;;44.28;13.00;;;-1.90;1.00;;;-2.07;81.60;100602.66;5074565;28;20674;-67
2022/12/11 09:29:13;;;;;;;11.00;5.65;;;-1.90;1.00;;;-2.14;82.23;100601.50;5072470;28;20216;-67
2022/12/11 09:31:42;;;;;;;13.35;7.47;;;-1.90;1.00;;;-2.06;81.89;100605.19;5074478;28;20190;-66
2022/12/11 09:34:29;;;;;;;23.50;8.98;;;-1.90;1.00;;;-2.00;81.84;100595.91;5066948;28;20206;-68
2022/12/11 09:36:58;;;;;;;9.40;5.30;;;-1.80;1.00;;;-2.01;81.45;100586.25;5074031;28;20667;-68
2022/12/11 09:39:27;;;;;;;12.43;7.20;;;-1.80;1.00;;;-1.98;81.42;100586.84;5074314;28;20268;-67
2022/12/11 09:42:08;;;;;;;33.17;9.73;;;-1.80;1.00;;;-1.99;82.14;100586.97;5064854;28;20195;-66
2022/12/11 09:44:46;;;;;;;11.82;8.80;;;-1.80;1.00;;;-1.82;82.51;100599.63;5053527;28;20230;-66
2022/12/11 09:47:34;;;;;;;15.95;6.15;;;-1.70;1.10;;;-1.98;81.92;100588.63;5064213;28;20179;-68
2022/12/11 09:50:15;;;;;;;13.77;6.00;;;-1.80;1.00;;;-1.77;82.05;100595.63;5069861;28;20212;-66
2022/12/11 09:53:03;;;;;;;18.75;8.90;;;-1.70;1.00;;;-1.93;82.45;100586.44;5073886;28;20565;-66
2022/12/11 09:55:49;;;;;;;13.40;9.13;;;-1.70;1.00;;;-1.94;82.88;100587.44;5074207;28;20198;-67
2022/12/11 09:59:00;;;;;;;18.15;6.97;;;-1.80;1.00;;;-1.79;82.43;100583.44;5073569;28;20211;-66
2022/12/11 10:01:45;;;;;;;21.55;9.00;;;-1.70;11.80;;;-1.71;82.36;100583.66;5073571;28;20187;-67
2022/12/11 10:04:34;;;;;;;10.32;7.15;;;-1.60;18.70;;;-1.82;82.42;100581.06;5073743;28;20204;-67
2022/12/11 10:07:15;;;;;;;18.42;7.80;;;-1.60;1.00;;;-1.81;82.74;100572.16;5074634;28;20676;-66
2022/12/11 10:09:57;;;;;;;16.45;6.88;;;-1.60;1.00;;;-1.88;82.78;100571.81;5073549;28;20231;-67
2022/12/11 10:12:40;;;;;;;17.10;10.02;;;-1.60;1.00;;;-1.79;82.82;100562.22;5073541;28;20187;-67
2022/12/11 10:15:36;;;;;;;13.93;8.00;;;-1.60;1.00;;;-1.74;82.51;100557.38;5074069;28;20648;-66
2022/12/11 10:18:14;;;;;;;20.10;6.18;;;-1.60;1.00;;;-1.55;82.13;100557.47;5073350;28;20587;-66
2022/12/11 10:20:44;;;;;;;11.35;7.13;;;-1.50;1.00;;;-1.56;81.43;100555.81;5073444;28;20202;-66
2022/12/11 10:23:20;;;;;;;13.77;9.02;;;-1.40;1.00;;;-1.77;81.96;100562.97;5073733;28;20211;-67
2022/12/11 10:25:57;;;;;;;11.85;7.07;;;-1.50;1.00;;;-1.89;82.62;100561.38;5073936;28;20242;-68
2022/12/11 10:28:29;;;;;;;9.30;5.88;;;-1.70;1.00;;;-1.97;82.82;100550.53;5076605;28;20217;-67
2022/12/11 10:31:11;;;;;;;10.23;6.10;;;-1.70;1.00;;;-1.86;84.18;100543.38;5075331;28;20184;-65
2022/12/11 10:33:54;;;;;;;13.02;6.82;;;-1.70;91.30;;;-1.73;83.53;100539.66;5074748;28;20194;-65
2022/12/11 10:36:31;;;;;;;11.27;5.53;;;-1.60;98.60;;;-1.79;82.75;100528.59;5066525;28;20189;-66
2022/12/11 10:39:02;;;;;;;15.23;8.15;;;-1.60;1.00;;;-1.80;83.88;100526.94;5073792;28;20208;-67
2022/12/11 10:41:38;;;;;;;10.45;6.70;;;-1.60;35.80;;;-1.66;83.50;100528.41;5073985;28;20176;-66
2022/12/11 10:44:17;;;;;;;10.43;6.60;;;-1.50;68.60;;;-1.48;82.69;100520.63;5073324;28;20297;-64
2022/12/11 10:46:47;;;;;;;11.10;9.82;;;-1.40;2.00;;;-1.62;82.99;100524.50;5073306;28;20191;-66
2022/12/11 10:49:25;;;;;;;12.30;8.30;;;-1.40;1.00;;;-1.63;82.96;100527.28;5055359;28;20769;-66
2022/12/11 10:51:56;;;;;;;11.10;8.15;;;-1.40;1.00;;;-1.74;82.75;100528.19;5053132;28;20169;-66